ADDS METAR Data INFO
IDs: Format: Raw Decoded Include TAF

Data at: 1148 UTC 23 Jun 2018

KPIM 231135Z AUTO 23004KT OVC007 24/23 A2995 RMK AO2 T02400230 PWINO PNO
KPIM 231115Z AUTO 23005KT BKN005 BKN013 BKN024 24/23 A2994 RMK AO2 T02360228 PWINO PNO
KPIM 231055Z AUTO 23007G15KT BKN005 OVC013 24/23 A2994 RMK AO2 T02370228 PWINO PNO
KPIM 231035Z AUTO 23007KT OVC005 24/23 A2994 RMK AO2 T02360228 PWINO PNO
KPIM 231015Z AUTO 23008KT OVC005 24/23 A2993 RMK AO2 T02350227 PWINO PNO
KPIM 230955Z AUTO 24009KT OVC005 24/23 A2992 RMK AO2 T02350226 PWINO PNO
KPIM 230935Z AUTO 22007KT OVC005 24/23 A2991 RMK AO2 T02350226 PWINO PNO
KPIM 230915Z AUTO 23006KT OVC005 24/23 A2991 RMK AO2 T02350226 PWINO PNO
KPIM 230855Z AUTO 23004KT OVC005 23/23 A2992 RMK AO2 6//// T02330225 PWINO PNO
KPIM 230835Z AUTO 21005KT OVC005 23/23 A2991 RMK AO2 T02320225 PWINO PNO
KPIM 230815Z AUTO 21006KT OVC007 23/23 A2991 RMK AO2 T02320225 PWINO PNO
KPIM 230755Z AUTO 22005KT OVC007 23/22 A2991 RMK AO2 T02310223 PWINO PNO
KPIM 230735Z AUTO 21005KT BKN009 23/22 A2990 RMK AO2 T02310222 PWINO PNO
KPIM 230715Z AUTO 19004KT 23/22 A2989 RMK AO2 T02310221 PWINO PNO
KPIM 230655Z AUTO 00000KT 23/22 A2989 RMK AO2 T02320221 PWINO PNO
KPIM 230635Z AUTO 21004KT 23/22 A2989 RMK AO2 T02300218 PWINO PNO
KPIM 230615Z AUTO 19004KT 23/22 A2989 RMK AO2 T02270215 PWINO PNO
KPIM 230555Z AUTO 15004KT 23/21 A2989 RMK AO2 6//// T02250214 10237 20224 PWINO PNO
KPIM 230535Z AUTO 18004KT 23/21 A2989 RMK AO2 T02270212 PWINO PNO
KPIM 230515Z AUTO 18005KT 23/22 A2988 RMK AO2 T02320217 PWINO PNO
KPIM 230455Z AUTO 19004KT 24/22 A2988 RMK AO2 T02350220 PWINO PNO
KPIM 230435Z AUTO 20004KT 23/22 A2989 RMK AO2 T02320219 PWINO PNO
KPIM 230415Z AUTO 00000KT 23/22 A2989 RMK AO2 T02250216 PWINO PNO
KPIM 230355Z AUTO 00000KT 23/22 A2989 RMK AO2 T02300216 PWINO PNO
KPIM 230335Z AUTO 20004KT 23/22 A2989 RMK AO2 T02270215 PWINO PNO
KPIM 230315Z AUTO 00000KT 23/21 A2990 RMK AO2 T02300214 PWINO PNO
KPIM 230255Z AUTO 21004KT 23/21 A2990 RMK AO2 6//// T02290214 PWINO PNO
KPIM 230235Z AUTO 00000KT 23/21 A2990 RMK AO2 T02250213 PWINO PNO
KPIM 230215Z AUTO 18003KT 23/21 A2990 RMK AO2 T02250214 PWINO PNO
KPIM 230155Z AUTO 00000KT 23/22 A2990 RMK AO2 T02260215 PWINO PNO
KPIM 230135Z AUTO 00000KT 23/22 A2989 RMK AO2 T02260215 PWINO PNO
KPIM 230115Z AUTO 15004KT 23/22 A2989 RMK AO2 T02280217 PWINO PNO
KPIM 230055Z AUTO 21004KT 23/22 A2988 RMK AO2 T02280217 PWINO PNO
KPIM 230035Z AUTO 23004KT 23/22 A2989 RMK AO2 T02300218 PWINO PNO
KPIM 230015Z AUTO 18004KT 23/22 A2987 RMK AO2 T02300217 PWINO PNO
KPIM 222355Z AUTO 29005KT 23/22 A2990 RMK AO2 6//// T02270218 PWINO PNO
KPIM 222335Z AUTO 00000KT 23/22 A2989 RMK AO2 T02310215 PWINO PNO
KPIM 222315Z AUTO 29007G17KT 24/22 A2988 RMK AO2 T02350217 PWINO PNO
KPIM 222255Z AUTO 00000KT 27/24 A2986 RMK AO2 T02660243 PWINO PNO
KPIM 222235Z AUTO 00000KT SCT033 SCT050 SCT070 27/24 A2986 RMK AO2 T02670240 PWINO PNO
KPIM 222215Z AUTO 00000KT SCT022 SCT038 BKN110 28/24 A2985 RMK AO2 T02820237 PWINO PNO
KPIM 222155Z AUTO 20007KT SCT042 SCT048 SCT120 31/23 A2985 RMK AO2 T03050226 PWINO PNO
KPIM 222135Z AUTO 22007KT 30/22 A2986 RMK AO2 T02950220 PWINO PNO